Time;durP1;ratioP1;P1;durP2;ratioP2;P2;SDS_P1;SDS_P2;PMS_P1;PMS_P2;Temp;Humidity;BMP_temperature;BMP_pressure;BME280_temperature;BME280_humidity;BME280_pressure;Samples;Min_cycle;Max_cycle;Signal;HPM_P1;HPM_P2
2022/07/09 00:01:50;;;;;;;2.63;2.47;;;;;;;16.90;64.59;99753.63;4057229;29;20209;-57
2022/07/09 00:03:52;;;;;;;3.03;2.38;;;;;;;16.98;64.25;99758.72;4101724;28;20613;-58
2022/07/09 00:05:53;;;;;;;3.95;2.40;;;;;;;17.03;64.12;99758.75;4104411;28;21767;-58
2022/07/09 00:07:55;;;;;;;2.58;2.38;;;;;;;17.05;64.08;99751.03;4074344;29;20623;-58
2022/07/09 00:09:57;;;;;;;3.28;2.30;;;;;;;17.08;63.97;99749.69;4092471;29;20255;-58
2022/07/09 00:11:58;;;;;;;2.80;2.60;;;;;;;17.08;63.94;99746.94;4084330;29;20579;-59
2022/07/09 00:14:00;;;;;;;3.08;2.35;;;;;;;17.08;64.03;99749.69;4087599;28;20260;-58
2022/07/09 00:16:02;;;;;;;2.40;2.20;;;;;;;17.06;64.20;99752.72;4083629;28;20226;-58
2022/07/09 00:18:04;;;;;;;2.95;2.72;;;;;;;17.07;63.87;99754.38;4097177;28;21117;-58
2022/07/09 00:20:06;;;;;;;3.17;2.53;;;;;;;17.06;63.71;99747.19;4083144;28;20267;-58
2022/07/09 00:22:08;;;;;;;5.38;4.15;;;;;;;17.05;63.78;99740.81;4069877;29;20263;-58
2022/07/09 00:24:10;;;;;;;2.78;2.25;;;;;;;17.03;63.63;99736.63;4083411;29;20212;-58
2022/07/09 00:26:12;;;;;;;5.07;2.85;;;;;;;16.97;63.92;99742.38;4082467;28;20231;-58
2022/07/09 00:28:13;;;;;;;5.57;2.40;;;;;;;16.91;63.90;99735.97;4069480;29;20280;-58
2022/07/09 00:30:15;;;;;;;2.33;2.22;;;;;;;16.86;64.19;99735.91;4085400;28;20259;-58
2022/07/09 00:32:18;;;;;;;3.60;2.25;;;;;;;16.86;64.33;99738.69;4095358;28;20221;-58
2022/07/09 00:34:19;;;;;;;2.88;2.67;;;;;;;16.83;64.58;99735.59;4098756;28;20230;-59
2022/07/09 00:36:21;;;;;;;3.00;2.70;;;;;;;16.74;64.72;99726.94;4059809;29;20212;-59
2022/07/09 00:38:23;;;;;;;3.13;2.92;;;;;;;16.69;65.13;99735.16;4074254;29;20228;-58
2022/07/09 00:40:24;;;;;;;3.50;2.42;;;;;;;16.65;64.98;99728.50;4073930;29;20232;-58
2022/07/09 00:42:26;;;;;;;3.47;3.15;;;;;;;16.62;65.12;99733.72;4097012;28;20204;-59
2022/07/09 00:44:28;;;;;;;3.95;3.42;;;;;;;16.59;65.32;99729.53;4066652;29;20248;-58
2022/07/09 00:46:30;;;;;;;3.65;2.58;;;;;;;16.54;65.45;99731.38;4078960;28;20220;-58
2022/07/09 00:48:32;;;;;;;3.28;2.67;;;;;;;16.53;65.47;99725.03;4052891;29;20300;-61
2022/07/09 00:50:34;;;;;;;3.50;2.85;;;;;;;16.52;65.77;99734.44;4082760;28;20759;-58
2022/07/09 00:52:36;;;;;;;2.42;2.20;;;;;;;16.47;65.54;99720.53;4077705;29;20287;-58
2022/07/09 00:54:39;;;;;;;3.95;3.00;;;;;;;16.45;65.54;99725.50;4096982;28;20655;-58
2022/07/09 00:56:41;;;;;;;2.97;2.50;;;;;;;16.40;65.97;99722.66;4087378;28;20258;-57
2022/07/09 00:58:44;;;;;;;2.65;2.45;;;;;;;16.37;65.70;99719.56;4085380;28;20709;-59
2022/07/09 01:00:46;;;;;;;2.63;2.42;;;;;;;16.35;65.90;99721.75;4081844;29;20231;-59
2022/07/09 01:02:49;;;;;;;4.68;3.22;;;;;;;16.33;65.87;99710.94;4069425;29;20220;-58
2022/07/09 01:04:51;;;;;;;2.42;2.08;;;;;;;16.29;65.96;99711.72;4085087;28;20212;-59
2022/07/09 01:06:52;;;;;;;3.15;2.17;;;;;;;16.27;66.29;99709.22;4066480;29;20205;-58
2022/07/09 01:08:54;;;;;;;2.83;2.63;;;;;;;16.28;66.23;99710.03;4083340;28;20275;-58
2022/07/09 01:10:56;;;;;;;2.60;1.95;;;;;;;16.25;66.30;99710.56;4067455;29;20220;-58
2022/07/09 01:12:58;;;;;;;3.58;2.75;;;;;;;16.21;66.31;99715.78;4075252;29;20275;-59
2022/07/09 01:15:00;;;;;;;3.20;3.00;;;;;;;16.21;66.06;99715.78;4070320;29;20331;-58
2022/07/09 01:17:04;;;;;;;3.35;3.05;;;;;;;16.24;66.24;99708.91;4067890;29;20228;-59
2022/07/09 01:19:06;;;;;;;2.90;2.70;;;;;;;16.24;66.35;99709.72;4086233;29;20689;-59
2022/07/09 01:21:07;;;;;;;3.30;2.85;;;;;;;16.25;66.34;99705.88;4095668;28;20211;-58
2022/07/09 01:23:09;;;;;;;2.90;2.63;;;;;;;16.24;66.40;99706.94;4073158;29;20212;-58
2022/07/09 01:25:14;;;;;;;4.22;2.60;;;;;;;16.20;66.44;99703.06;4083016;28;20208;-59
2022/07/09 01:27:15;;;;;;;3.13;2.92;;;;;;;16.19;66.37;99697.78;4061122;29;20272;-58
2022/07/09 01:29:21;;;;;;;3.22;3.03;;;;;;;16.15;66.44;99700.22;4070606;29;20600;-58
2022/07/09 01:31:23;;;;;;;3.25;3.05;;;;;;;16.11;66.46;99699.09;4068698;29;20208;-57
2022/07/09 01:33:26;;;;;;;3.05;2.85;;;;;;;16.05;66.55;99689.06;4072518;29;20216;-58
2022/07/09 01:35:27;;;;;;;3.17;2.97;;;;;;;16.03;66.47;99687.66;4084229;28;20684;-58
2022/07/09 01:37:29;;;;;;;3.22;2.95;;;;;;;15.99;66.60;99690.09;4081558;28;20289;-58
2022/07/09 01:42:53;;;;;;;3.58;3.28;;;;;;;15.96;66.95;99682.28;4079431;28;20195;-58
2022/07/09 01:44:55;;;;;;;3.53;3.22;;;;;;;15.92;66.84;99680.31;4083125;29;20211;-58
2022/07/09 01:46:56;;;;;;;2.50;2.30;;;;;;;15.90;66.91;99688.84;4055223;29;20953;-58
2022/07/09 01:48:58;;;;;;;3.95;2.97;;;;;;;15.88;66.97;99682.75;4080743;29;20303;-58
2022/07/09 01:51:00;;;;;;;3.40;3.10;;;;;;;15.90;67.09;99685.25;4070929;28;20236;-58
2022/07/09 01:53:02;;;;;;;3.08;2.88;;;;;;;15.87;67.12;99681.09;4083751;28;20767;-58
2022/07/09 01:55:04;;;;;;;3.28;3.08;;;;;;;15.85;67.09;99683.28;4082027;28;20672;-58
2022/07/09 01:57:06;;;;;;;3.13;2.92;;;;;;;15.81;66.97;99679.34;4066180;29;20209;-58
2022/07/09 01:59:07;;;;;;;3.17;2.97;;;;;;;15.72;67.42;99678.13;4084706;28;20223;-58
2022/07/09 02:01:09;;;;;;;3.05;2.85;;;;;;;15.68;67.60;99688.00;4086968;28;20585;-58
2022/07/09 02:03:11;;;;;;;4.97;3.00;;;;;;;15.62;67.81;99688.19;4089650;29;20207;-58
2022/07/09 02:05:13;;;;;;;4.65;4.35;;;;;;;15.54;67.77;99675.66;4084465;29;20216;-58
2022/07/09 02:07:14;;;;;;;3.92;3.63;;;;;;;15.52;67.98;99685.25;4086736;28;20212;-58
2022/07/09 02:09:17;;;;;;;4.45;4.15;;;;;;;15.44;68.05;99681.00;4071935;29;20228;-58
2022/07/09 02:11:19;;;;;;;4.57;4.15;;;;;;;15.10;69.46;99684.84;4067128;29;20250;-59
2022/07/09 02:13:20;;;;;;;4.03;3.72;;;;;;;15.00;69.66;99679.16;4068049;29;20595;-59
2022/07/09 02:15:22;;;;;;;4.55;4.18;;;;;;;14.82;70.48;99682.16;4081275;28;20665;-58
2022/07/09 02:17:24;;;;;;;4.50;4.13;;;;;;;14.86;70.25;99683.34;4068646;29;20631;-59
2022/07/09 02:19:26;;;;;;;6.93;3.80;;;;;;;14.95;69.82;99683.72;4070233;28;20287;-58
2022/07/09 02:21:27;;;;;;;4.07;3.78;;;;;;;15.03;69.41;99684.16;4096752;28;20238;-58
2022/07/09 02:23:29;;;;;;;4.25;3.63;;;;;;;15.08;69.15;99680.66;4068339;29;20212;-59
2022/07/09 02:25:30;;;;;;;3.22;3.03;;;;;;;15.10;69.17;99684.84;4063878;29;21197;-58
2022/07/09 02:27:32;;;;;;;4.50;3.70;;;;;;;15.13;69.18;99683.50;4087063;29;21815;-58
2022/07/09 02:29:34;;;;;;;8.90;4.53;;;;;;;15.13;69.40;99677.97;4084177;28;20478;-58
2022/07/09 02:31:35;;;;;;;4.18;3.88;;;;;;;15.14;68.92;99690.69;4080852;28;20218;-58
2022/07/09 02:33:37;;;;;;;3.92;3.63;;;;;;;15.13;69.28;99678.84;4080279;29;20254;-58
2022/07/09 02:35:39;;;;;;;4.65;4.35;;;;;;;15.16;68.96;99677.50;4085174;29;20651;-59
2022/07/09 02:37:42;;;;;;;5.43;3.85;;;;;;;15.13;68.97;99678.84;4084867;29;20710;-58
2022/07/09 02:39:43;;;;;;;4.22;3.72;;;;;;;15.14;68.88;99682.41;4079488;28;20882;-58
2022/07/09 02:41:45;;;;;;;4.03;3.63;;;;;;;15.16;68.82;99694.84;4082081;28;20630;-58
2022/07/09 02:43:47;;;;;;;3.33;3.03;;;;;;;15.19;68.53;99688.88;4086047;28;20247;-59
2022/07/09 02:45:51;;;;;;;3.78;3.47;;;;;;;15.20;68.61;99682.25;4082312;29;20246;-59
2022/07/09 02:47:53;;;;;;;5.63;4.65;;;;;;;15.21;68.56;99692.19;4065142;29;21071;-58
2022/07/09 02:49:55;;;;;;;3.85;3.55;;;;;;;15.21;68.41;99685.84;4066750;29;20228;-58
2022/07/09 02:51:59;;;;;;;3.72;3.45;;;;;;;15.22;68.49;99693.84;4067662;29;20205;-58
2022/07/09 02:54:00;;;;;;;3.53;3.28;;;;;;;15.19;68.48;99688.00;4067723;29;20201;-57
2022/07/09 02:56:02;;;;;;;4.00;3.70;;;;;;;15.18;68.50;99694.63;4083611;28;20287;-57
2022/07/09 02:58:04;;;;;;;4.25;3.95;;;;;;;15.15;68.51;99693.19;4074237;29;20580;-58
2022/07/09 03:00:06;;;;;;;4.40;3.70;;;;;;;15.08;68.76;99686.16;4082858;28;20325;-58
2022/07/09 03:02:08;;;;;;;3.40;3.10;;;;;;;15.07;68.79;99687.25;4069851;29;20828;-58
2022/07/09 03:04:09;;;;;;;4.43;4.13;;;;;;;14.99;68.76;99688.53;4086256;28;20208;-57
2022/07/09 03:06:12;;;;;;;4.25;3.92;;;;;;;14.94;69.03;99685.66;4091777;28;20711;-58
2022/07/09 03:08:14;;;;;;;4.47;4.18;;;;;;;14.93;69.26;99684.00;4085123;29;22070;-58
2022/07/09 03:10:19;;;;;;;4.88;3.45;;;;;;;14.90;69.29;99678.97;4087111;28;20295;-58
2022/07/09 03:12:21;;;;;;;5.13;4.72;;;;;;;14.84;69.33;99681.91;4087559;29;20306;-58
2022/07/09 03:14:22;;;;;;;4.70;4.40;;;;;;;14.80;69.33;99673.31;4099790;28;20620;-58
2022/07/09 03:16:24;;;;;;;4.38;4.07;;;;;;;14.77;69.57;99675.72;4085045;28;20279;-58
2022/07/09 03:18:26;;;;;;;4.82;4.53;;;;;;;14.76;69.65;99676.81;4098459;28;20215;-58
2022/07/09 03:20:28;;;;;;;6.38;5.05;;;;;;;14.74;69.83;99673.44;4070740;29;20236;-59
2022/07/09 03:22:29;;;;;;;4.50;4.13;;;;;;;14.76;69.74;99677.63;4084484;28;20208;-58
2022/07/09 03:24:31;;;;;;;4.88;4.57;;;;;;;14.73;69.54;99669.88;4072967;29;20595;-57
2022/07/09 03:26:33;;;;;;;4.18;3.88;;;;;;;14.75;69.33;99673.19;4074737;29;20243;-58
2022/07/09 03:28:34;;;;;;;4.18;3.65;;;;;;;14.77;69.26;99673.78;4071551;29;20213;-59
2022/07/09 03:30:37;;;;;;;4.40;4.10;;;;;;;14.80;69.08;99678.81;4089164;28;20326;-58
2022/07/09 03:32:39;;;;;;;4.40;4.10;;;;;;;14.82;68.94;99671.13;4101021;28;22279;-58
2022/07/09 03:34:40;;;;;;;4.32;2.88;;;;;;;14.82;69.12;99676.63;4069147;29;20216;-59
2022/07/09 03:36:42;;;;;;;3.97;3.67;;;;;;;14.80;68.76;99684.31;4097861;28;20215;-58
2022/07/09 03:38:44;;;;;;;3.80;3.55;;;;;;;14.78;69.17;99681.00;4070306;29;20219;-59
2022/07/09 03:40:45;;;;;;;4.78;3.70;;;;;;;14.78;69.10;99682.91;4086864;28;20239;-58
2022/07/09 03:42:48;;;;;;;4.88;4.47;;;;;;;14.73;68.91;99680.88;4071027;29;21227;-59
2022/07/09 03:44:49;;;;;;;4.65;4.25;;;;;;;14.69;69.29;99687.97;4073299;29;20233;-58
2022/07/09 03:46:51;;;;;;;4.38;4.13;;;;;;;14.63;69.58;99682.63;4087324;28;20633;-59
2022/07/09 03:48:53;;;;;;;8.85;3.95;;;;;;;14.61;69.50;99674.59;4084698;29;20212;-58
2022/07/09 03:50:54;;;;;;;4.55;4.25;;;;;;;14.58;69.59;99688.84;4098819;28;20874;-58
2022/07/09 03:52:57;;;;;;;3.92;3.72;;;;;;;14.58;69.52;99683.34;4087490;29;20222;-58
2022/07/09 03:54:59;;;;;;;5.20;4.57;;;;;;;14.59;69.93;99687.81;4074411;29;20212;-59
2022/07/09 03:57:00;;;;;;;4.63;3.83;;;;;;;14.59;69.99;99687.81;4098599;28;20242;-58
2022/07/09 03:59:02;;;;;;;5.03;4.65;;;;;;;14.59;70.09;99695.22;4083894;29;20231;-59
2022/07/09 04:01:04;;;;;;;4.55;4.15;;;;;;;14.60;70.01;99689.47;4084786;28;20211;-58
2022/07/09 04:03:06;;;;;;;4.50;4.22;;;;;;;14.62;69.96;99686.47;4082273;28;20212;-58
2022/07/09 04:05:08;;;;;;;5.32;4.85;;;;;;;14.62;70.00;99687.28;4082716;28;20255;-59
2022/07/09 04:07:10;;;;;;;5.35;5.03;;;;;;;14.61;70.30;99691.13;4089677;29;20214;-59
2022/07/09 04:09:12;;;;;;;4.60;3.95;;;;;;;14.60;70.20;99689.47;4106845;28;20207;-58
2022/07/09 04:11:13;;;;;;;4.40;4.10;;;;;;;14.62;70.00;99684.53;4087275;28;20219;-58
2022/07/09 04:13:15;;;;;;;4.68;4.28;;;;;;;14.63;69.86;99683.44;4109533;28;20733;-58
2022/07/09 04:15:20;;;;;;;4.70;4.25;;;;;;;14.68;69.87;99686.31;4087211;28;20253;-58
2022/07/09 04:17:22;;;;;;;4.95;4.55;;;;;;;14.70;69.92;99686.88;4090348;28;20247;-58
2022/07/09 04:19:24;;;;;;;4.60;4.20;;;;;;;14.74;69.92;99690.81;4072638;29;20246;-58
2022/07/09 04:21:25;;;;;;;5.25;4.95;;;;;;;14.75;69.97;99691.66;4079807;28;20744;-58
2022/07/09 04:23:27;;;;;;;5.28;4.80;;;;;;;14.76;69.95;99691.41;4083249;29;20212;-58
2022/07/09 04:25:29;;;;;;;5.63;5.22;;;;;;;14.78;69.75;99689.25;4086066;29;20219;-58
2022/07/09 04:27:31;;;;;;;4.80;4.32;;;;;;;14.77;69.87;99684.81;4084576;28;20282;-59
2022/07/09 04:29:32;;;;;;;9.63;4.43;;;;;;;14.81;69.77;99690.66;4071202;29;20284;-59
2022/07/09 04:31:34;;;;;;;4.75;4.35;;;;;;;14.82;69.80;99693.16;4078107;29;20262;-58
2022/07/09 04:33:36;;;;;;;5.25;4.85;;;;;;;14.86;69.69;99699.03;4091091;28;20222;-59
2022/07/09 04:35:38;;;;;;;4.20;3.90;;;;;;;14.86;69.83;99694.34;4074867;29;20251;-59
2022/07/09 04:37:39;;;;;;;5.35;4.95;;;;;;;14.90;70.06;99694.69;4073957;29;20236;-59
2022/07/09 04:39:41;;;;;;;5.38;4.97;;;;;;;14.84;70.29;99685.47;4072402;29;20240;-59
2022/07/09 04:41:42;;;;;;;5.45;4.85;;;;;;;14.84;70.36;99696.50;4069997;29;20216;-59
2022/07/09 04:43:44;;;;;;;5.50;5.00;;;;;;;14.86;70.51;99691.59;4070357;29;20213;-59
2022/07/09 04:45:46;;;;;;;5.18;4.78;;;;;;;14.83;70.74;99692.09;4068590;29;20216;-58
2022/07/09 04:47:48;;;;;;;6.43;5.93;;;;;;;14.89;70.89;99688.34;4064367;29;20237;-58
2022/07/09 04:49:49;;;;;;;5.97;5.38;;;;;;;14.90;70.55;99684.50;4092147;28;20223;-58
2022/07/09 04:51:51;;;;;;;6.20;4.97;;;;;;;14.83;71.08;99689.31;4085519;29;20207;-58
2022/07/09 04:53:53;;;;;;;5.88;5.45;;;;;;;14.82;71.25;99682.16;4085315;29;20259;-59
2022/07/09 04:55:55;;;;;;;5.82;5.43;;;;;;;14.84;70.66;99685.47;4084035;28;20274;-57
2022/07/09 04:57:56;;;;;;;5.28;4.78;;;;;;;14.90;70.87;99690.00;4071103;29;20208;-58
2022/07/09 04:59:59;;;;;;;5.43;5.05;;;;;;;14.93;70.76;99683.16;4099883;28;20231;-58
2022/07/09 05:02:01;;;;;;;5.35;4.85;;;;;;;15.01;70.71;99697.38;4087379;29;20257;-58
2022/07/09 05:04:02;;;;;;;8.68;5.03;;;;;;;15.10;70.81;99679.31;4073174;29;20221;-58
2022/07/09 05:06:04;;;;;;;5.88;5.47;;;;;;;15.14;70.53;99680.50;4068729;29;20208;-59
2022/07/09 05:08:06;;;;;;;5.13;4.72;;;;;;;15.15;70.55;99676.66;4084413;29;20274;-58
2022/07/09 05:10:08;;;;;;;5.28;4.70;;;;;;;15.15;70.89;99673.91;4090788;28;20695;-58
2022/07/09 05:12:11;;;;;;;4.80;4.40;;;;;;;15.15;71.29;99684.91;4085852;29;20628;-58
2022/07/09 05:14:16;;;;;;;5.60;5.20;;;;;;;15.26;71.06;99683.16;4081262;28;20207;-58
2022/07/09 05:16:18;;;;;;;4.80;4.50;;;;;;;15.31;70.71;99681.31;4081665;28;20286;-58
2022/07/09 05:18:20;;;;;;;5.28;4.88;;;;;;;15.40;70.28;99679.84;4091733;28;20717;-58
2022/07/09 05:20:22;;;;;;;6.95;4.75;;;;;;;15.48;69.95;99676.66;4083415;28;20645;-57
2022/07/09 05:22:23;;;;;;;5.28;4.85;;;;;;;15.58;70.04;99679.56;4084379;28;20204;-58
2022/07/09 05:24:25;;;;;;;4.97;4.57;;;;;;;15.66;69.83;99676.38;4100463;28;20214;-59
2022/07/09 05:26:29;;;;;;;6.25;5.70;;;;;;;15.60;70.49;99668.25;4066562;29;20239;-58
2022/07/09 05:28:31;;;;;;;5.82;5.32;;;;;;;15.35;71.56;99668.72;4068968;29;20272;-59
2022/07/09 05:30:36;;;;;;;6.45;5.82;;;;;;;15.56;70.76;99670.69;4083313;29;20340;-58
2022/07/09 05:32:38;;;;;;;7.00;4.97;;;;;;;15.73;70.35;99667.91;4078120;29;20234;-59
2022/07/09 05:34:40;;;;;;;4.78;4.38;;;;;;;15.89;70.09;99673.38;4069347;29;20212;-58
2022/07/09 05:36:42;;;;;;;6.80;6.20;;;;;;;16.02;70.26;99667.47;4071325;29;20220;-58
2022/07/09 05:38:45;;;;;;;10.52;5.57;;;;;;;16.20;69.91;99669.91;4086168;28;20267;-59
2022/07/09 05:40:46;;;;;;;6.25;5.75;;;;;;;16.29;69.92;99673.06;4083742;28;20236;-59
2022/07/09 05:42:48;;;;;;;7.35;5.70;;;;;;;16.50;70.21;99673.03;4084295;28;20263;-57
2022/07/09 05:44:50;;;;;;;6.45;5.85;;;;;;;16.69;70.43;99668.81;4082877;29;20274;-59
2022/07/09 05:46:52;;;;;;;8.05;5.50;;;;;;;16.90;69.61;99664.31;4067970;29;20212;-59
2022/07/09 05:48:54;;;;;;;4.70;4.40;;;;;;;17.08;68.82;99667.53;4097006;28;20734;-59
2022/07/09 05:50:55;;;;;;;5.75;5.35;;;;;;;17.28;68.00;99665.75;4084058;28;20228;-59
2022/07/09 05:52:57;;;;;;;5.50;5.00;;;;;;;17.24;67.83;99664.63;4085796;29;20219;-58
2022/07/09 05:54:58;;;;;;;5.47;4.97;;;;;;;17.29;68.00;99658.28;4066942;29;20216;-59
2022/07/09 05:57:08;;;;;;;5.80;4.47;;;;;;;17.48;67.08;99662.34;4097822;28;20207;-59
2022/07/09 05:59:10;;;;;;;5.13;4.63;;;;;;;17.38;67.24;99663.09;4090238;29;20691;-58
2022/07/09 06:01:13;;;;;;;4.32;3.92;;;;;;;17.60;66.86;99665.75;4087811;28;20207;-59
2022/07/09 06:03:14;;;;;;;4.45;4.15;;;;;;;17.76;66.61;99667.47;4077850;28;20251;-59
2022/07/09 06:05:19;;;;;;;4.60;4.20;;;;;;;17.89;66.35;99669.78;4078770;28;20207;-59
2022/07/09 06:07:21;;;;;;;4.32;3.97;;;;;;;17.94;65.99;99662.34;4090189;28;20231;-58
2022/07/09 06:09:30;;;;;;;5.05;4.65;;;;;;;17.45;66.30;99668.41;4085681;29;20228;-58
2022/07/09 06:11:32;;;;;;;5.13;4.55;;;;;;;17.33;67.03;99670.50;4086466;28;20279;-58
2022/07/09 06:13:36;;;;;;;3.97;3.67;;;;;;;17.29;67.50;99659.13;4074545;29;20228;-59
2022/07/09 06:15:38;;;;;;;5.35;4.85;;;;;;;17.53;67.14;99657.66;4068003;29;20279;-58
2022/07/09 06:17:40;;;;;;;4.45;4.15;;;;;;;17.69;66.78;99664.13;4062657;29;20222;-60
2022/07/09 06:19:42;;;;;;;6.93;5.25;;;;;;;17.86;66.51;99667.56;4084342;28;20640;-56
2022/07/09 06:21:44;;;;;;;4.53;4.15;;;;;;;17.92;66.88;99663.72;4079642;29;20203;-51
2022/07/09 06:23:45;;;;;;;4.40;3.88;;;;;;;18.18;66.31;99662.72;4078565;29;20211;-53
2022/07/09 06:25:47;;;;;;;4.88;4.50;;;;;;;18.23;65.31;99665.50;4080419;28;20245;-53
2022/07/09 06:27:49;;;;;;;4.63;4.15;;;;;;;18.43;65.44;99671.13;4091902;28;20247;-50
2022/07/09 06:29:51;;;;;;;3.95;3.42;;;;;;;18.56;65.11;99670.63;4087043;28;20220;-50
2022/07/09 06:31:53;;;;;;;4.13;3.78;;;;;;;18.74;64.87;99667.34;4080429;28;20236;-52
2022/07/09 06:33:54;;;;;;;3.90;3.60;;;;;;;18.95;64.09;99674.56;4081218;29;20219;-53
2022/07/09 06:36:01;;;;;;;3.50;3.20;;;;;;;19.29;63.88;99681.28;4073708;29;20295;-50
2022/07/09 06:38:04;;;;;;;4.93;3.95;;;;;;;19.42;63.16;99669.63;4083954;28;20211;-51
2022/07/09 06:40:06;;;;;;;4.22;3.25;;;;;;;19.57;62.69;99672.41;4089483;28;20750;-54
2022/07/09 06:42:08;;;;;;;4.88;3.58;;;;;;;19.64;62.85;99665.41;4089244;29;20683;-52
2022/07/09 06:44:10;;;;;;;6.07;3.80;;;;;;;19.92;62.47;99669.53;4086272;28;20239;-50
2022/07/09 06:46:11;;;;;;;3.03;2.83;;;;;;;19.77;62.23;99669.56;4101103;28;20211;-50
2022/07/09 06:48:16;;;;;;;4.20;3.00;;;;;;;19.67;62.36;99667.66;4074001;29;20287;-53
2022/07/09 06:50:18;;;;;;;4.07;3.63;;;;;;;19.83;62.08;99665.66;4087747;29;20273;-52
2022/07/09 06:52:20;;;;;;;4.85;3.13;;;;;;;20.10;61.77;99663.41;4070383;29;20252;-51
2022/07/09 06:54:22;;;;;;;3.08;2.80;;;;;;;20.20;61.52;99661.41;4083115;29;20203;-52
2022/07/09 06:56:24;;;;;;;4.45;3.58;;;;;;;20.20;61.44;99671.69;4075195;29;20215;-52
2022/07/09 06:58:25;;;;;;;2.58;2.40;;;;;;;20.28;61.22;99663.59;4074678;29;20215;-52
2022/07/09 07:00:27;;;;;;;3.28;2.92;;;;;;;20.33;61.23;99657.16;4086827;29;20268;-51
2022/07/09 07:02:29;;;;;;;4.28;2.35;;;;;;;20.48;60.89;99657.94;4073115;29;20212;-50
2022/07/09 07:04:31;;;;;;;3.13;2.92;;;;;;;20.52;60.33;99660.97;4088767;29;20726;-51
2022/07/09 07:06:33;;;;;;;3.10;2.70;;;;;;;20.44;60.91;99661.56;4059632;29;20211;-53
2022/07/09 07:08:35;;;;;;;3.10;2.80;;;;;;;20.75;61.37;99663.03;4080130;28;20226;-54
2022/07/09 07:10:37;;;;;;;4.40;2.95;;;;;;;21.13;61.07;99659.47;4082279;28;21058;-53
2022/07/09 07:12:44;;;;;;;5.00;2.80;;;;;;;21.20;59.56;99665.53;4093906;28;20218;-54
2022/07/09 07:14:45;;;;;;;4.30;2.20;;;;;;;21.49;58.94;99664.44;4065250;29;20212;-55
2022/07/09 07:16:47;;;;;;;3.72;1.92;;;;;;;21.55;59.35;99665.22;4083757;28;20208;-53
2022/07/09 07:18:49;;;;;;;3.65;2.03;;;;;;;21.80;57.97;99671.41;4088229;28;20641;-54
2022/07/09 07:20:51;;;;;;;3.00;2.40;;;;;;;21.88;57.11;99667.97;4085264;29;20690;-55
2022/07/09 07:22:52;;;;;;;2.85;1.75;;;;;;;21.86;57.67;99670.22;4087618;28;20230;-54
2022/07/09 07:24:54;;;;;;;3.65;2.13;;;;;;;21.77;57.73;99660.84;4089327;28;20282;-54
2022/07/09 07:26:56;;;;;;;5.05;2.67;;;;;;;21.75;57.88;99662.25;4081604;28;20211;-54
2022/07/09 07:28:58;;;;;;;5.53;2.40;;;;;;;21.90;57.47;99664.91;4084428;28;20775;-54
2022/07/09 07:31:00;;;;;;;3.70;3.03;;;;;;;21.87;57.78;99660.75;4069653;29;20211;-54
2022/07/09 07:33:02;;;;;;;4.68;3.20;;;;;;;21.78;57.77;99656.09;4069231;29;21031;-53
2022/07/09 07:35:04;;;;;;;3.20;2.70;;;;;;;21.75;57.44;99660.31;4071673;28;20207;-55
2022/07/09 07:37:06;;;;;;;4.82;3.38;;;;;;;21.85;57.98;99656.59;4079957;28;20231;-54
2022/07/09 07:39:07;;;;;;;9.55;2.80;;;;;;;21.88;58.09;99661.56;4069040;29;20662;-55
2022/07/09 07:41:09;;;;;;;6.10;4.05;;;;;;;21.95;57.59;99667.59;4110256;28;20373;-54
2022/07/09 07:43:11;;;;;;;3.25;2.35;;;;;;;22.25;57.58;99658.88;4089372;29;20215;-55
2022/07/09 07:45:13;;;;;;;3.55;2.45;;;;;;;22.57;57.12;99661.84;4088524;28;20204;-54
2022/07/09 07:47:14;;;;;;;3.10;2.15;;;;;;;22.86;56.71;99662.53;4075217;29;20220;-54
2022/07/09 07:49:17;;;;;;;2.50;2.08;;;;;;;23.11;56.46;99667.75;4083843;29;20255;-54
2022/07/09 07:51:19;;;;;;;4.28;2.22;;;;;;;23.36;54.60;99661.78;4087116;29;20214;-53
2022/07/09 07:53:21;;;;;;;6.22;2.63;;;;;;;23.27;54.37;99661.63;4087349;28;20247;-54
2022/07/09 07:55:22;;;;;;;4.90;3.17;;;;;;;23.41;55.04;99664.47;4089511;28;20195;-55
2022/07/09 07:57:24;;;;;;;3.17;2.03;;;;;;;23.65;54.52;99659.56;4084483;28;20694;-55
2022/07/09 07:59:26;;;;;;;5.80;3.47;;;;;;;23.56;52.75;99661.41;4070470;29;20243;-55
2022/07/09 08:01:28;;;;;;;7.80;2.53;;;;;;;23.40;53.06;99652.47;4074866;29;21936;-55
2022/07/09 08:03:29;;;;;;;3.05;2.55;;;;;;;23.17;53.84;99647.00;4068906;29;20204;-55
2022/07/09 08:05:33;;;;;;;5.63;2.38;;;;;;;23.52;53.04;99655.63;4077608;29;20215;-55
2022/07/09 08:07:35;;;;;;;3.50;1.98;;;;;;;23.59;53.44;99644.88;4078569;29;20207;-55
2022/07/09 08:09:40;;;;;;;5.40;2.35;;;;;;;23.94;53.53;99647.00;4060037;29;20228;-55
2022/07/09 08:11:41;;;;;;;2.97;2.10;;;;;;;24.33;52.95;99647.31;4078468;29;20223;-56
2022/07/09 08:13:43;;;;;;;3.20;2.05;;;;;;;24.79;51.17;99643.22;4068067;29;20216;-56
2022/07/09 08:15:45;;;;;;;2.80;1.83;;;;;;;24.91;51.12;99645.47;4053747;29;20574;-56
2022/07/09 08:17:46;;;;;;;1.90;1.25;;;;;;;24.99;50.44;99647.53;4069870;29;20207;-54
2022/07/09 08:19:48;;;;;;;4.68;1.38;;;;;;;24.39;47.64;99643.28;4084598;28;20340;-54
2022/07/09 08:21:50;;;;;;;2.22;1.60;;;;;;;24.18;48.72;99637.28;4072288;29;20208;-54
2022/07/09 08:23:53;;;;;;;4.80;1.65;;;;;;;23.51;50.65;99641.94;4069843;29;20304;-54
2022/07/09 08:25:55;;;;;;;3.70;1.55;;;;;;;23.42;51.29;99640.97;4099328;28;20241;-54
2022/07/09 08:27:57;;;;;;;3.42;1.30;;;;;;;23.51;50.64;99637.16;4088037;28;20204;-55
2022/07/09 08:29:58;;;;;;;4.05;1.80;;;;;;;23.58;51.65;99636.78;4080673;28;20266;-55
2022/07/09 08:32:00;;;;;;;5.80;1.55;;;;;;;23.53;51.65;99642.44;4064972;29;20211;-55
2022/07/09 08:34:02;;;;;;;3.55;1.40;;;;;;;23.52;51.66;99627.66;4081271;28;20219;-55
2022/07/09 08:36:04;;;;;;;5.47;1.52;;;;;;;23.50;52.14;99631.91;4082216;28;20242;-54
2022/07/09 08:38:06;;;;;;;4.57;1.80;;;;;;;23.44;51.10;99621.94;4098942;28;20782;-55
2022/07/09 08:40:08;;;;;;;4.70;1.77;;;;;;;23.31;51.83;99625.53;4084819;29;20285;-54
2022/07/09 08:42:10;;;;;;;2.30;1.50;;;;;;;22.86;51.82;99626.25;4087282;29;20212;-54
2022/07/09 08:44:12;;;;;;;2.90;1.38;;;;;;;22.90;53.38;99627.31;4096663;28;20214;-55
2022/07/09 08:46:14;;;;;;;5.90;1.40;;;;;;;23.06;53.16;99628.72;4073126;29;20244;-54
2022/07/09 08:48:16;;;;;;;2.85;1.70;;;;;;;22.88;53.09;99632.34;4081900;29;22010;-58
2022/07/09 08:50:19;;;;;;;2.72;1.63;;;;;;;23.02;53.22;99633.22;4056544;29;20228;-55
2022/07/09 08:52:22;;;;;;;3.78;1.60;;;;;;;23.05;52.23;99621.47;4075084;29;20219;-55
2022/07/09 08:54:24;;;;;;;3.00;1.73;;;;;;;22.83;52.26;99629.66;4097435;28;20214;-54
2022/07/09 08:56:25;;;;;;;9.25;1.80;;;;;;;22.79;53.73;99617.41;4082329;28;20702;-55
2022/07/09 08:58:27;;;;;;;2.95;1.45;;;;;;;22.87;52.78;99620.34;4080385;28;20242;-54
2022/07/09 09:00:29;;;;;;;2.13;1.65;;;;;;;23.45;55.97;99618.00;4077956;28;21201;-54
2022/07/09 09:02:38;;;;;;;3.60;1.92;;;;;;;23.58;51.72;99614.41;4069999;29;20211;-55
2022/07/09 09:04:40;;;;;;;5.10;1.63;;;;;;;23.72;52.71;99618.06;4084875;28;20916;-54
2022/07/09 09:06:42;;;;;;;1.77;1.48;;;;;;;24.16;51.29;99611.59;4096528;28;20815;-55
2022/07/09 09:08:45;;;;;;;3.10;2.30;;;;;;;24.22;50.84;99604.75;4068145;29;20271;-54
2022/07/09 09:10:47;;;;;;;3.13;1.48;;;;;;;24.37;49.65;99606.38;4112961;28;20218;-55
2022/07/09 09:12:48;;;;;;;1.88;1.60;;;;;;;24.20;49.59;99611.78;4080088;28;20368;-55
2022/07/09 09:14:50;;;;;;;5.00;2.00;;;;;;;23.76;49.17;99605.13;4077076;28;20208;-54
2022/07/09 09:16:52;;;;;;;4.15;1.17;;;;;;;23.53;49.74;99609.75;4097456;28;20214;-55
2022/07/09 09:18:54;;;;;;;2.72;1.10;;;;;;;23.37;49.83;99607.53;4111204;28;21436;-55
2022/07/09 09:21:02;;;;;;;2.50;0.98;;;;;;;23.28;50.98;99604.63;4084468;28;20242;-55
2022/07/09 09:23:09;;;;;;;2.55;1.13;;;;;;;22.93;51.30;99604.34;4081659;29;20689;-55
2022/07/09 09:25:18;;;;;;;2.28;1.30;;;;;;;23.46;51.22;99600.09;4075218;28;20219;-54
2022/07/09 09:27:28;;;;;;;2.60;1.40;;;;;;;23.91;51.37;99596.47;4075388;28;20701;-55
2022/07/09 09:29:30;;;;;;;1.77;1.30;;;;;;;24.50;50.38;99589.56;4111945;28;20225;-55
2022/07/09 09:31:33;;;;;;;2.25;1.55;;;;;;;24.80;49.98;99590.84;4101724;28;20298;-54
2022/07/09 09:33:35;;;;;;;2.08;1.30;;;;;;;25.05;48.86;99591.03;4081502;28;20219;-54
2022/07/09 09:35:42;;;;;;;3.58;1.52;;;;;;;25.11;48.47;99592.56;4066336;29;20207;-54
2022/07/09 09:37:44;;;;;;;5.47;1.48;;;;;;;24.92;48.57;99588.31;4098515;28;20214;-55
2022/07/09 09:39:49;;;;;;;2.72;1.73;;;;;;;25.38;48.48;99584.03;4070398;29;20227;-55